createdAt,value
2022-09-12T00:01:32.022Z,5.43
2022-09-12T00:04:01.906Z,5.03
2022-09-12T00:06:31.908Z,4.70
2022-09-12T00:09:03.611Z,4.60
2022-09-12T00:11:32.300Z,5.17
2022-09-12T00:14:03.464Z,4.50
2022-09-12T00:16:33.854Z,5.07
2022-09-12T00:19:02.713Z,5.23
2022-09-12T00:21:33.300Z,4.80
2022-09-12T00:24:02.047Z,5.50
2022-09-12T00:26:30.621Z,7.20
2022-09-12T00:28:59.113Z,5.43
2022-09-12T00:31:29.039Z,5.43
2022-09-12T00:34:00.648Z,6.87
2022-09-12T00:36:30.436Z,6.33
2022-09-12T00:38:59.515Z,7.40
2022-09-12T00:41:30.125Z,6.37
2022-09-12T00:44:00.666Z,6.70
2022-09-12T00:46:38.184Z,7.20
2022-09-12T00:49:13.578Z,7.60
2022-09-12T00:51:46.222Z,7.00
2022-09-12T00:54:21.893Z,6.77
2022-09-12T00:56:52.992Z,7.17
2022-09-12T00:59:25.817Z,6.03
2022-09-12T01:01:57.057Z,5.83
2022-09-12T01:04:28.101Z,5.30
2022-09-12T01:06:58.896Z,6.13
2022-09-12T01:09:27.359Z,5.63
2022-09-12T01:11:56.841Z,5.60
2022-09-12T01:14:25.844Z,5.00
2022-09-12T01:16:55.603Z,4.53
2022-09-12T01:19:48.481Z,3.70
2022-09-12T01:22:34.520Z,4.50
2022-09-12T01:25:12.504Z,3.43
2022-09-12T01:28:00.788Z,3.23
2022-09-12T01:30:56.200Z,3.97
2022-09-12T01:33:38.425Z,3.60
2022-09-12T01:36:34.550Z,3.53
2022-09-12T01:39:05.759Z,3.13
2022-09-12T01:41:49.972Z,4.40
2022-09-12T01:44:27.314Z,3.93
2022-09-12T01:47:03.364Z,3.93
2022-09-12T01:49:37.389Z,4.47
2022-09-12T01:52:12.664Z,4.30
2022-09-12T01:54:46.344Z,4.00
2022-09-12T01:57:20.589Z,4.47
2022-09-12T01:59:53.163Z,5.03
2022-09-12T02:02:30.358Z,5.37
2022-09-12T02:05:03.776Z,5.50
2022-09-12T02:07:38.115Z,5.33
2022-09-12T02:10:12.254Z,5.77
2022-09-12T02:12:47.360Z,6.47
2022-09-12T02:15:20.272Z,6.40
2022-09-12T02:17:53.119Z,6.87
2022-09-12T02:20:46.456Z,6.73
2022-09-12T02:23:18.196Z,5.83
2022-09-12T02:25:48.879Z,6.27
2022-09-12T02:28:22.602Z,6.57
2022-09-12T02:30:59.230Z,6.90
2022-09-12T02:33:33.700Z,8.23
2022-09-12T02:36:10.153Z,8.03
2022-09-12T02:38:45.155Z,7.57
2022-09-12T02:41:16.564Z,7.87
2022-09-12T02:43:45.151Z,7.80
2022-09-12T02:46:20.393Z,7.70
2022-09-12T02:48:50.163Z,8.03
2022-09-12T02:51:23.404Z,7.80
2022-09-12T02:53:52.513Z,8.93
2022-09-12T02:56:25.852Z,9.10
2022-09-12T02:58:55.461Z,7.20
2022-09-12T03:01:35.910Z,6.50
2022-09-12T03:04:25.983Z,5.43
2022-09-12T03:07:02.722Z,5.70
2022-09-12T03:09:38.785Z,5.90
2022-09-12T03:12:19.590Z,5.57
2022-09-12T03:15:04.551Z,5.20
2022-09-12T03:17:45.124Z,4.97
2022-09-12T03:20:19.288Z,4.93
2022-09-12T03:22:55.673Z,4.63
2022-09-12T03:25:28.918Z,4.93
2022-09-12T03:28:00.493Z,4.40
2022-09-12T03:30:29.038Z,4.53
2022-09-12T03:32:57.693Z,4.77
2022-09-12T03:35:27.510Z,4.63
2022-09-12T03:37:55.940Z,5.00
2022-09-12T03:40:24.364Z,4.93
2022-09-12T03:42:52.761Z,5.40
2022-09-12T03:45:21.209Z,5.10
2022-09-12T03:47:49.568Z,5.30
2022-09-12T03:50:18.245Z,4.97
2022-09-12T03:52:47.983Z,5.47
2022-09-12T03:55:17.573Z,5.23
2022-09-12T03:57:46.073Z,5.27
2022-09-12T04:00:19.619Z,5.27
2022-09-12T04:02:48.306Z,5.67
2022-09-12T04:05:16.904Z,5.27
2022-09-12T04:07:45.277Z,5.70
2022-09-12T04:10:16.342Z,5.80
2022-09-12T04:12:45.280Z,6.00
2022-09-12T04:15:13.673Z,5.67
2022-09-12T04:17:42.052Z,6.20
2022-09-12T04:20:10.811Z,5.70
2022-09-12T04:22:39.255Z,7.47
2022-09-12T04:25:09.485Z,6.10
2022-09-12T04:27:39.261Z,6.57
2022-09-12T04:30:09.195Z,6.20
2022-09-12T04:32:37.819Z,6.70
2022-09-12T04:35:06.624Z,6.63
2022-09-12T04:37:35.174Z,6.83
2022-09-12T04:40:04.168Z,6.63
2022-09-12T04:42:32.700Z,6.60
2022-09-12T04:45:03.540Z,6.27
2022-09-12T04:47:31.933Z,6.10
2022-09-12T04:50:00.347Z,7.50
2022-09-12T04:52:28.724Z,6.43
2022-09-12T04:54:57.076Z,6.83
2022-09-12T04:57:25.973Z,7.30
2022-09-12T04:59:54.396Z,6.93
2022-09-12T05:02:24.157Z,7.27
2022-09-12T05:04:52.613Z,7.20
2022-09-12T05:07:20.963Z,7.60
2022-09-12T05:09:49.303Z,7.10
2022-09-12T05:12:17.704Z,7.27
2022-09-12T05:14:46.435Z,7.83
2022-09-12T05:17:14.809Z,7.20
2022-09-12T05:19:44.575Z,6.83
2022-09-12T05:22:12.991Z,7.37
2022-09-12T05:24:47.256Z,6.97
2022-09-12T05:27:18.467Z,7.77
2022-09-12T05:29:46.892Z,7.00
2022-09-12T05:32:15.284Z,8.23
2022-09-12T05:34:45.267Z,7.10
2022-09-12T05:37:13.678Z,7.87
2022-09-12T05:39:42.102Z,7.50
2022-09-12T05:42:10.602Z,8.60
2022-09-12T05:44:38.992Z,7.60
2022-09-12T05:47:07.499Z,7.73
2022-09-12T05:49:37.095Z,8.47
2022-09-12T05:52:06.971Z,7.60
2022-09-12T05:54:35.433Z,7.97
2022-09-12T05:57:03.871Z,8.33
2022-09-12T05:59:32.837Z,8.33
2022-09-12T06:02:01.399Z,8.40
2022-09-12T06:04:29.854Z,9.57
2022-09-12T06:06:58.227Z,9.67
2022-09-12T06:09:28.057Z,11.73
2022-09-12T06:11:56.801Z,18.07
2022-09-12T06:14:25.328Z,20.57
2022-09-12T06:16:54.591Z,19.30
2022-09-12T06:19:25.018Z,20.27
2022-09-12T06:21:53.367Z,19.20
2022-09-12T06:24:22.239Z,19.80
2022-09-12T06:26:52.970Z,19.73
2022-09-12T06:29:21.894Z,19.30
2022-09-12T06:31:50.286Z,20.60
2022-09-12T06:34:19.507Z,21.10
2022-09-12T06:36:49.642Z,21.60
2022-09-12T06:39:19.387Z,20.17
2022-09-12T06:41:48.375Z,19.00
2022-09-12T06:44:21.846Z,23.53
2022-09-12T06:46:50.578Z,21.53
2022-09-12T06:49:19.116Z,24.70
2022-09-12T06:51:47.682Z,23.97
2022-09-12T06:54:17.819Z,22.67
2022-09-12T06:56:46.370Z,23.23
2022-09-12T06:59:14.843Z,23.67
2022-09-12T07:01:44.633Z,24.77
2022-09-12T07:04:13.094Z,22.47
2022-09-12T07:06:44.576Z,23.70
2022-09-12T07:09:16.277Z,21.77
2022-09-12T07:11:45.249Z,19.93
2022-09-12T07:14:14.985Z,19.87
2022-09-12T07:16:44.912Z,19.43
2022-09-12T07:19:13.375Z,17.97
2022-09-12T07:21:42.100Z,20.27
2022-09-12T07:24:11.693Z,18.97
2022-09-12T07:26:41.891Z,18.83
2022-09-12T07:32:05.566Z,17.43
2022-09-12T07:34:34.331Z,18.37
2022-09-12T07:37:02.837Z,18.70
2022-09-12T07:39:31.238Z,17.77
2022-09-12T07:42:00.364Z,15.90
2022-09-12T07:44:29.382Z,16.53
2022-09-12T07:46:57.785Z,16.43
2022-09-12T07:49:27.856Z,16.33
2022-09-12T07:51:56.322Z,16.47
2022-09-12T07:54:25.012Z,16.93
2022-09-12T07:56:53.398Z,16.47
2022-09-12T07:59:48.476Z,13.43
2022-09-12T08:02:17.183Z,14.60
2022-09-12T08:04:48.154Z,13.90
2022-09-12T08:07:18.229Z,13.90
2022-09-12T08:09:47.244Z,14.30
2022-09-12T08:12:16.550Z,14.03
2022-09-12T08:14:44.988Z,14.37
2022-09-12T08:17:14.241Z,14.00
2022-09-12T08:19:42.657Z,14.03
2022-09-12T08:22:13.187Z,12.75
2022-09-12T08:24:41.704Z,13.57
2022-09-12T08:27:10.243Z,13.70
2022-09-12T08:29:38.659Z,12.63
2022-09-12T08:32:07.199Z,13.57
2022-09-12T08:34:35.766Z,13.50
2022-09-12T08:37:04.197Z,13.82
2022-09-12T08:39:34.019Z,12.35
2022-09-12T08:42:03.977Z,12.93
2022-09-12T08:44:59.474Z,14.05
2022-09-12T08:47:31.492Z,13.85
2022-09-12T08:50:11.627Z,13.27
2022-09-12T08:52:48.134Z,13.60
2022-09-12T08:55:28.579Z,13.07
2022-09-12T08:57:57.219Z,12.40
2022-09-12T09:00:31.726Z,13.05
2022-09-12T09:03:18.764Z,12.73
2022-09-12T09:05:52.268Z,12.30
2022-09-12T09:08:47.802Z,11.60
2022-09-12T09:11:27.987Z,11.45
2022-09-12T09:14:29.129Z,11.52
2022-09-12T09:16:58.700Z,11.07
2022-09-12T09:19:31.612Z,11.05
2022-09-12T09:22:03.532Z,12.27
2022-09-12T09:24:38.956Z,12.45
2022-09-12T09:27:36.819Z,11.32
2022-09-12T09:30:03.875Z,11.45
2022-09-12T09:32:37.401Z,12.38
2022-09-12T09:35:16.432Z,11.30
2022-09-12T09:37:56.757Z,11.20
2022-09-12T09:40:34.150Z,11.57
2022-09-12T09:43:12.771Z,11.95
2022-09-12T09:45:45.777Z,11.35
2022-09-12T09:48:19.883Z,12.32
2022-09-12T09:50:50.056Z,10.93
2022-09-12T09:53:30.302Z,12.27
2022-09-12T09:56:03.262Z,11.10
2022-09-12T09:58:35.267Z,11.02
2022-09-12T10:01:05.939Z,10.82
2022-09-12T10:03:36.065Z,11.90
2022-09-12T10:06:10.202Z,10.10
2022-09-12T10:08:39.214Z,10.88
2022-09-12T10:11:18.299Z,10.27
2022-09-12T10:13:56.813Z,9.43
2022-09-12T10:16:27.772Z,10.65
2022-09-12T10:18:58.247Z,10.98
2022-09-12T10:21:31.320Z,8.85
2022-09-12T10:24:04.447Z,9.68
2022-09-12T10:26:36.348Z,10.18
2022-09-12T10:29:14.154Z,9.23
2022-09-12T10:31:47.854Z,8.98
2022-09-12T10:34:32.407Z,7.57
2022-09-12T10:37:06.666Z,7.72
2022-09-12T10:39:36.215Z,7.05
2022-09-12T10:42:06.464Z,7.15
2022-09-12T10:44:36.500Z,7.07
2022-09-12T10:47:21.080Z,6.80
2022-09-12T10:49:50.894Z,6.20
2022-09-12T10:52:23.210Z,6.57
2022-09-12T10:54:52.053Z,5.72
2022-09-12T10:58:08.821Z,5.85
2022-09-12T11:00:46.701Z,5.50
2022-09-12T11:03:22.831Z,5.88
2022-09-12T11:05:56.092Z,5.63
2022-09-12T11:08:40.778Z,5.88
2022-09-12T11:11:32.055Z,4.82
2022-09-12T11:14:13.141Z,4.50
2022-09-12T11:16:49.872Z,4.75
2022-09-12T11:19:47.049Z,5.10
2022-09-12T11:22:32.027Z,4.75
2022-09-12T11:25:22.317Z,4.68
2022-09-12T11:28:22.633Z,5.43
2022-09-12T11:31:04.157Z,4.75
2022-09-12T11:33:43.390Z,4.53
2022-09-12T11:36:27.724Z,5.25
2022-09-12T11:39:04.228Z,3.70
2022-09-12T11:41:36.973Z,3.30
2022-09-12T11:44:15.765Z,3.40
2022-09-12T11:46:47.706Z,3.17
2022-09-12T11:49:29.732Z,3.22
2022-09-12T11:52:05.351Z,3.20
2022-09-12T11:54:37.156Z,2.90
2022-09-12T11:57:15.086Z,3.15
2022-09-12T11:59:49.951Z,4.00
2022-09-12T12:02:28.229Z,3.17
2022-09-12T12:05:20.543Z,3.63
2022-09-12T12:07:54.531Z,2.78
2022-09-12T12:10:27.342Z,2.58
2022-09-12T12:12:57.425Z,3.17
2022-09-12T12:15:28.386Z,3.22
2022-09-12T12:18:06.533Z,2.92
2022-09-12T12:20:37.081Z,2.53
2022-09-12T12:23:05.807Z,3.03
2022-09-12T12:25:51.420Z,2.75
2022-09-12T12:28:53.270Z,2.95
2022-09-12T12:31:21.748Z,2.53
2022-09-12T12:34:06.373Z,2.65
2022-09-12T12:36:41.347Z,2.17
2022-09-12T12:39:49.844Z,2.53
2022-09-12T12:43:02.476Z,2.85
2022-09-12T12:46:12.552Z,2.35
2022-09-12T12:49:06.923Z,2.40
2022-09-12T12:51:50.175Z,3.35
2022-09-12T12:54:53.580Z,2.85
2022-09-12T12:57:47.139Z,3.05
2022-09-12T13:00:34.716Z,2.80
2022-09-12T13:03:11.339Z,2.90
2022-09-12T13:05:41.926Z,2.40
2022-09-12T13:08:26.509Z,3.03
2022-09-12T13:10:58.818Z,3.30
2022-09-12T13:13:33.064Z,3.53
2022-09-12T13:16:01.553Z,2.88
2022-09-12T13:18:35.929Z,3.30
2022-09-12T13:21:10.657Z,3.35
2022-09-12T13:23:40.670Z,2.72
2022-09-12T13:26:13.243Z,2.78
2022-09-12T13:28:41.799Z,2.45
2022-09-12T13:31:17.721Z,2.20
2022-09-12T13:33:49.349Z,3.00
2022-09-12T13:36:43.211Z,3.00
2022-09-12T13:39:21.074Z,2.53
2022-09-12T13:42:33.486Z,3.30
2022-09-12T13:45:05.930Z,3.03
2022-09-12T13:47:37.711Z,2.55
2022-09-12T13:50:08.851Z,2.92
2022-09-12T13:52:39.362Z,2.80
2022-09-12T13:55:19.619Z,3.17
2022-09-12T13:57:58.087Z,3.28
2022-09-12T14:00:26.911Z,2.58
2022-09-12T14:03:16.105Z,2.83
2022-09-12T14:05:48.043Z,3.08
2022-09-12T14:08:16.496Z,2.42
2022-09-12T14:10:50.434Z,3.13
2022-09-12T14:13:21.393Z,2.53
2022-09-12T14:15:52.553Z,2.45
2022-09-12T14:18:25.133Z,2.72
2022-09-12T14:20:57.231Z,3.00
2022-09-12T14:23:30.083Z,2.67
2022-09-12T14:26:02.530Z,2.33
2022-09-12T14:28:31.952Z,2.25
2022-09-12T14:31:03.439Z,2.85
2022-09-12T14:33:35.197Z,2.45
2022-09-12T14:36:13.207Z,2.40
2022-09-12T14:38:45.145Z,2.33
2022-09-12T14:41:21.815Z,1.88
2022-09-12T14:43:54.533Z,2.20
2022-09-12T14:46:28.384Z,2.15
2022-09-12T14:49:01.054Z,2.42
2022-09-12T14:51:34.656Z,2.42
2022-09-12T14:54:03.725Z,2.08
2022-09-12T14:56:42.476Z,2.58
2022-09-12T14:59:31.821Z,2.60
2022-09-12T15:02:23.141Z,2.20
2022-09-12T15:04:54.280Z,2.15
2022-09-12T15:07:31.881Z,2.33
2022-09-12T15:10:01.408Z,2.22
2022-09-12T15:12:31.241Z,2.30
2022-09-12T15:15:03.277Z,2.20
2022-09-12T15:17:31.660Z,2.40
2022-09-12T15:20:00.076Z,2.23
2022-09-12T15:22:28.559Z,2.13
2022-09-12T15:24:57.462Z,2.10
2022-09-12T15:27:26.221Z,2.63
2022-09-12T15:29:56.226Z,2.00
2022-09-12T15:32:25.415Z,2.20
2022-09-12T15:34:54.387Z,2.30
2022-09-12T15:37:24.729Z,1.87
2022-09-12T15:39:53.316Z,2.23
2022-09-12T15:42:29.361Z,2.80
2022-09-12T15:45:02.503Z,3.80
2022-09-12T15:47:31.297Z,2.10
2022-09-12T15:49:59.657Z,2.40
2022-09-12T15:52:28.205Z,1.90
2022-09-12T15:54:56.573Z,1.83
2022-09-12T15:57:24.971Z,2.03
2022-09-12T15:59:53.414Z,1.57
2022-09-12T16:02:23.364Z,1.70
2022-09-12T16:04:54.665Z,1.80
2022-09-12T16:07:22.999Z,1.67
2022-09-12T16:09:51.446Z,1.60
2022-09-12T16:12:19.809Z,1.70
2022-09-12T16:14:48.217Z,1.83
2022-09-12T16:17:19.865Z,1.47
2022-09-12T16:19:49.764Z,1.70
2022-09-12T16:22:18.205Z,1.50
2022-09-12T16:24:46.594Z,1.67
2022-09-12T16:27:15.116Z,1.43
2022-09-12T16:29:43.521Z,1.80
2022-09-12T16:32:11.914Z,1.80
2022-09-12T16:34:40.327Z,1.50
2022-09-12T16:37:10.183Z,1.70
2022-09-12T16:39:38.714Z,2.13
2022-09-12T16:42:07.379Z,1.67
2022-09-12T16:44:35.731Z,1.70
2022-09-12T16:47:04.153Z,1.40
2022-09-12T16:49:32.543Z,1.43
2022-09-12T16:52:00.884Z,1.60
2022-09-12T16:54:30.719Z,1.40
2022-09-12T16:56:59.142Z,1.67
2022-09-12T16:59:27.548Z,1.80
2022-09-12T17:01:56.046Z,2.10
2022-09-12T17:04:24.560Z,1.57
2022-09-12T17:06:52.920Z,1.50
2022-09-12T17:09:21.981Z,1.73
2022-09-12T17:11:53.141Z,2.03
2022-09-12T17:14:21.731Z,1.83
2022-09-12T17:16:52.025Z,1.80
2022-09-12T17:19:22.595Z,2.40
2022-09-12T17:21:51.024Z,2.53
2022-09-12T17:24:20.145Z,2.20
2022-09-12T17:26:48.593Z,2.27
2022-09-12T17:29:18.804Z,2.67
2022-09-12T17:31:47.980Z,1.90
2022-09-12T17:34:17.531Z,1.77
2022-09-12T17:36:48.353Z,2.37
2022-09-12T17:39:16.790Z,2.03
2022-09-12T17:41:45.998Z,2.40
2022-09-12T17:44:15.978Z,1.93
2022-09-12T17:46:45.732Z,2.20
2022-09-12T17:49:16.507Z,1.87
2022-09-12T17:51:45.423Z,2.47
2022-09-12T17:54:16.072Z,2.30
2022-09-12T17:56:45.538Z,2.15
2022-09-12T17:59:16.764Z,1.83
2022-09-12T18:02:04.791Z,2.30
2022-09-12T18:04:33.204Z,2.03
2022-09-12T18:07:01.701Z,2.30
2022-09-12T18:09:30.658Z,1.90
2022-09-12T18:11:59.467Z,2.47
2022-09-12T18:14:29.320Z,3.63
2022-09-12T18:17:00.192Z,3.03
2022-09-12T18:19:29.040Z,2.60
2022-09-12T18:21:57.872Z,3.00
2022-09-12T18:24:26.509Z,2.43
2022-09-12T18:26:56.541Z,2.03
2022-09-12T18:29:25.312Z,2.10
2022-09-12T18:31:53.696Z,2.50
2022-09-12T18:34:23.640Z,2.17
2022-09-12T18:36:54.227Z,2.27
2022-09-12T18:39:27.298Z,2.97
2022-09-12T18:41:56.742Z,2.30
2022-09-12T18:44:25.154Z,2.20
2022-09-12T18:46:53.848Z,2.87
2022-09-12T18:49:24.113Z,3.13
2022-09-12T18:51:52.512Z,3.33
2022-09-12T18:54:21.018Z,3.23
2022-09-12T18:56:49.708Z,2.93
2022-09-12T18:59:18.201Z,2.90
2022-09-12T19:01:47.191Z,2.87
2022-09-12T19:04:16.471Z,2.97
2022-09-12T19:06:50.440Z,3.00
2022-09-12T19:09:21.603Z,2.93
2022-09-12T19:11:50.471Z,2.70
2022-09-12T19:14:20.575Z,3.20
2022-09-12T19:16:49.044Z,3.13
2022-09-12T19:19:18.067Z,3.27
2022-09-12T19:21:48.101Z,3.43
2022-09-12T19:24:17.162Z,3.87
2022-09-12T19:26:46.333Z,3.77
2022-09-12T19:29:16.482Z,3.20
2022-09-12T19:31:44.952Z,3.50
2022-09-12T19:34:13.879Z,2.93
2022-09-12T19:36:45.939Z,3.30
2022-09-12T19:39:17.756Z,3.83
2022-09-12T19:41:46.718Z,3.63
2022-09-12T19:44:15.163Z,3.77
2022-09-12T19:46:43.946Z,3.87
2022-09-12T19:49:13.521Z,3.73
2022-09-12T19:51:42.492Z,4.32
2022-09-12T19:54:10.948Z,3.80
2022-09-12T19:56:40.762Z,3.90
2022-09-12T19:59:09.701Z,4.10
2022-09-12T20:01:38.328Z,3.80
2022-09-12T20:04:07.483Z,3.27
2022-09-12T20:06:36.620Z,3.83
2022-09-12T20:09:05.208Z,4.47
2022-09-12T20:11:33.802Z,4.37
2022-09-12T20:14:03.728Z,3.20
2022-09-12T20:16:33.536Z,3.57
2022-09-12T20:19:06.814Z,3.80
2022-09-12T20:21:37.116Z,3.43
2022-09-12T20:24:07.329Z,3.87
2022-09-12T20:26:35.857Z,3.93
2022-09-12T20:29:06.651Z,3.90
2022-09-12T20:31:35.886Z,3.80
2022-09-12T20:34:04.700Z,4.10
2022-09-12T20:36:33.286Z,3.90
2022-09-12T20:39:03.061Z,4.20
2022-09-12T20:41:35.915Z,4.00
2022-09-12T20:44:05.826Z,4.07
2022-09-12T20:46:34.431Z,4.00
2022-09-12T20:49:02.906Z,4.00
2022-09-12T20:51:31.348Z,4.30
2022-09-12T20:54:01.208Z,4.40
2022-09-12T20:56:31.664Z,4.37
2022-09-12T20:59:00.997Z,4.33
2022-09-12T21:01:32.303Z,4.37
2022-09-12T21:04:01.664Z,4.50
2022-09-12T21:06:30.024Z,4.27
2022-09-12T21:08:59.818Z,4.43
2022-09-12T21:11:29.141Z,4.43
2022-09-12T21:13:58.169Z,4.57
2022-09-12T21:16:26.848Z,4.37
2022-09-12T21:18:58.009Z,4.50
2022-09-12T21:21:27.195Z,3.87
2022-09-12T21:23:59.396Z,3.93
2022-09-12T21:26:27.757Z,4.03
2022-09-12T21:28:56.257Z,5.03
2022-09-12T21:31:25.128Z,4.23
2022-09-12T21:33:53.585Z,4.03
2022-09-12T21:36:24.677Z,4.60
2022-09-12T21:38:53.064Z,3.87
2022-09-12T21:41:21.453Z,4.87
2022-09-12T21:43:49.895Z,3.97
2022-09-12T21:46:18.521Z,4.30
2022-09-12T21:48:47.127Z,4.43
2022-09-12T21:51:15.516Z,4.77
2022-09-12T21:53:45.665Z,3.87
2022-09-12T21:56:14.036Z,3.83
2022-09-12T21:58:42.528Z,4.17
2022-09-12T22:01:13.056Z,4.00
2022-09-12T22:03:50.587Z,4.80
2022-09-12T22:06:22.397Z,4.63
2022-09-12T22:08:52.770Z,4.70
2022-09-12T22:11:21.241Z,4.13
2022-09-12T22:13:49.802Z,4.30
2022-09-12T22:16:18.333Z,4.77
2022-09-12T22:18:47.587Z,4.90
2022-09-12T22:21:17.507Z,4.10
2022-09-12T22:24:03.767Z,4.23
2022-09-12T22:26:41.912Z,3.60
2022-09-12T22:29:11.033Z,4.30
2022-09-12T22:31:39.829Z,4.00
2022-09-12T22:34:08.585Z,4.40
2022-09-12T22:36:38.987Z,4.57
2022-09-12T22:39:07.919Z,4.30
2022-09-12T22:41:37.691Z,3.67
2022-09-12T22:44:06.559Z,3.90
2022-09-12T22:46:34.993Z,3.93
2022-09-12T22:49:04.637Z,4.50
2022-09-12T22:51:33.547Z,4.30
2022-09-12T22:54:01.901Z,4.00
2022-09-12T22:56:30.291Z,3.70
2022-09-12T22:59:01.000Z,3.87
2022-09-12T23:01:29.779Z,4.10
2022-09-12T23:03:58.160Z,3.80
2022-09-12T23:06:26.711Z,4.00
2022-09-12T23:08:56.251Z,4.57
2022-09-12T23:11:24.624Z,4.53
2022-09-12T23:13:53.000Z,4.07
2022-09-12T23:16:24.817Z,4.40
2022-09-12T23:18:53.673Z,4.33
2022-09-12T23:21:22.972Z,4.57
2022-09-12T23:23:52.032Z,5.30
2022-09-12T23:26:24.020Z,5.43
2022-09-12T23:28:54.459Z,4.97
2022-09-12T23:31:26.022Z,5.17
2022-09-12T23:33:55.519Z,5.70
2022-09-12T23:36:24.711Z,4.80
2022-09-12T23:38:54.488Z,5.27
2022-09-12T23:41:23.404Z,4.97
2022-09-12T23:43:52.010Z,4.83
2022-09-12T23:46:21.439Z,5.33
2022-09-12T23:48:53.168Z,4.27
2022-09-12T23:51:22.677Z,5.17
2022-09-12T23:53:51.287Z,5.23
2022-09-12T23:56:19.769Z,6.03
2022-09-12T23:58:48.251Z,5.60
